Time;durP1;ratioP1;P1;durP2;ratioP2;P2;SDS_P1;SDS_P2;PMS_P1;PMS_P2;Temp;Humidity;BMP_temperature;BMP_pressure;BME280_temperature;BME280_humidity;BME280_pressure;Samples;Min_cycle;Max_cycle;Signal;HPM_P1;HPM_P2
2022/10/12 00:00:52;;;;;;;3.85;1.10;;;18.70;47.20;;;;;;4933315;29;20211;-37
2022/10/12 00:03:23;;;;;;;4.05;1.63;;;18.80;47.20;;;;;;4932925;29;20202;-38
2022/10/12 00:06:03;;;;;;;3.08;1.08;;;18.80;47.20;;;;;;4933545;29;20209;-40
2022/10/12 00:08:37;;;;;;;2.45;1.30;;;18.80;47.20;;;;;;4932869;29;20199;-36
2022/10/12 00:11:10;;;;;;;2.38;0.90;;;18.80;47.10;;;;;;4933588;29;20199;-37
2022/10/12 00:13:40;;;;;;;3.15;1.50;;;18.80;47.20;;;;;;4933419;29;20223;-36
2022/10/12 00:16:12;;;;;;;1.92;1.08;;;18.90;47.20;;;;;;4934032;29;20307;-40
2022/10/12 00:18:43;;;;;;;2.58;1.10;;;18.90;47.20;;;;;;4916091;29;20196;-36
2022/10/12 00:21:17;;;;;;;1.55;1.00;;;18.90;47.20;;;;;;4915412;29;20703;-37
2022/10/12 00:23:50;;;;;;;3.08;0.98;;;18.90;47.20;;;;;;4930856;29;20216;-37
2022/10/12 00:26:21;;;;;;;3.47;1.20;;;18.90;47.10;;;;;;4933767;29;20207;-36
2022/10/12 00:28:55;;;;;;;3.22;1.17;;;18.90;47.20;;;;;;4933191;29;20198;-37
2022/10/12 00:31:26;;;;;;;2.55;1.10;;;18.90;47.10;;;;;;4936400;29;20230;-36
2022/10/12 00:34:00;;;;;;;3.55;1.40;;;19.00;47.20;;;;;;4936122;29;20223;-39
2022/10/12 00:36:34;;;;;;;2.65;1.20;;;19.00;47.10;;;;;;4937970;29;20199;-37
2022/10/12 00:39:09;;;;;;;4.32;1.65;;;19.00;47.10;;;;;;4935936;29;20226;-38
2022/10/12 00:41:41;;;;;;;3.83;1.30;;;19.00;47.10;;;;;;4917928;29;20206;-37
2022/10/12 00:44:40;;;;;;;2.38;1.00;;;19.10;47.10;;;;;;4918040;29;20239;-37
2022/10/12 00:47:24;;;;;;;1.80;0.95;;;19.00;47.00;;;;;;4918316;29;20208;-42
2022/10/12 00:50:03;;;;;;;2.47;0.95;;;19.10;47.00;;;;;;4937119;29;20600;-40
2022/10/12 00:52:39;;;;;;;2.15;1.10;;;19.10;47.00;;;;;;4936911;29;20271;-37
2022/10/12 00:55:15;;;;;;;2.15;1.05;;;19.10;47.00;;;;;;4936496;29;20215;-40
2022/10/12 00:57:47;;;;;;;3.83;1.45;;;19.10;47.00;;;;;;4936994;29;20211;-36
2022/10/12 01:00:20;;;;;;;3.00;1.45;;;19.10;46.90;;;;;;4936335;29;20207;-37
2022/10/12 01:02:52;;;;;;;2.80;1.10;;;19.10;46.90;;;;;;4935931;29;20199;-36
2022/10/12 01:05:24;;;;;;;2.97;1.20;;;19.10;47.00;;;;;;4936028;29;20238;-41
2022/10/12 01:07:55;;;;;;;3.95;1.33;;;19.10;46.90;;;;;;4936550;29;20203;-36
2022/10/12 01:10:27;;;;;;;2.50;1.05;;;19.10;46.90;;;;;;4936881;29;20576;-36
2022/10/12 01:12:58;;;;;;;1.95;0.90;;;19.10;46.80;;;;;;4935954;29;20577;-42
2022/10/12 01:15:34;;;;;;;2.50;1.25;;;19.10;46.80;;;;;;4936583;29;20246;-37
2022/10/12 01:18:11;;;;;;;3.67;1.15;;;19.20;46.80;;;;;;4925352;29;22330;-37
2022/10/12 01:21:03;;;;;;;7.63;1.70;;;19.20;46.80;;;;;;4934405;29;20207;-40
2022/10/12 01:24:11;;;;;;;5.80;1.80;;;19.20;46.70;;;;;;4934545;29;20210;-37
2022/10/12 01:27:03;;;;;;;5.20;1.83;;;19.20;46.80;;;;;;4925922;29;20200;-36
2022/10/12 01:29:55;;;;;;;4.97;1.55;;;19.20;46.70;;;;;;4935659;29;20208;-37
2022/10/12 01:32:32;;;;;;;8.25;2.25;;;19.20;46.70;;;;;;4936440;29;20211;-36
2022/10/12 01:35:07;;;;;;;6.68;1.55;;;19.30;46.80;;;;;;4935545;29;20230;-42
2022/10/12 01:37:50;;;;;;;7.47;2.25;;;19.30;46.80;;;;;;4922791;29;20215;-39
2022/10/12 01:40:28;;;;;;;3.58;2.05;;;19.30;46.70;;;;;;4916414;29;20916;-39
2022/10/12 01:43:00;;;;;;;4.22;1.60;;;19.30;46.70;;;;;;4915340;29;20199;-37
2022/10/12 01:45:31;;;;;;;5.97;1.85;;;19.30;46.60;;;;;;4917026;29;20235;-37
2022/10/12 01:48:05;;;;;;;6.10;1.75;;;19.30;46.50;;;;;;4916474;29;20204;-39
2022/10/12 01:50:45;;;;;;;4.72;1.55;;;19.40;46.50;;;;;;4933298;29;20191;-39
2022/10/12 01:53:28;;;;;;;3.22;1.55;;;19.40;46.40;;;;;;4916449;29;20234;-38
2022/10/12 01:56:06;;;;;;;5.97;1.60;;;19.40;46.40;;;;;;4920454;29;20214;-37
2022/10/12 01:58:52;;;;;;;6.47;2.00;;;19.40;46.30;;;;;;4934504;29;20195;-37
2022/10/12 02:01:31;;;;;;;6.05;1.60;;;19.40;46.30;;;;;;4934731;29;20207;-39
2022/10/12 02:04:09;;;;;;;4.80;1.30;;;19.40;46.30;;;;;;4935378;29;20691;-37
2022/10/12 02:06:44;;;;;;;6.22;2.08;;;19.40;46.30;;;;;;4937781;28;20195;-44
2022/10/12 02:09:22;;;;;;;4.53;1.70;;;19.40;46.30;;;;;;4929173;29;20206;-37
2022/10/12 02:11:56;;;;;;;4.55;1.58;;;19.50;46.30;;;;;;4933719;29;20195;-42
2022/10/12 02:14:31;;;;;;;4.65;1.70;;;19.50;46.30;;;;;;4916243;29;20232;-42
2022/10/12 02:17:05;;;;;;;4.57;1.70;;;19.50;46.20;;;;;;4922674;29;20230;-37
2022/10/12 02:19:41;;;;;;;6.53;1.67;;;19.50;46.00;;;;;;4934664;29;20611;-37
2022/10/12 02:22:13;;;;;;;4.72;1.42;;;19.50;46.00;;;;;;4933320;29;20203;-37
2022/10/12 02:24:47;;;;;;;4.63;1.65;;;19.50;46.00;;;;;;4929058;29;20247;-38
2022/10/12 02:27:20;;;;;;;4.43;1.80;;;19.50;45.90;;;;;;4930511;29;20667;-43
2022/10/12 02:29:51;;;;;;;3.10;1.85;;;19.50;45.80;;;;;;4935259;29;20208;-41
2022/10/12 02:32:24;;;;;;;4.30;1.77;;;19.50;45.80;;;;;;4934897;29;20219;-40
2022/10/12 02:35:03;;;;;;;4.97;1.50;;;19.50;45.80;;;;;;4935128;29;20270;-40
2022/10/12 02:37:39;;;;;;;4.85;1.40;;;19.50;45.90;;;;;;4935002;29;20210;-37
2022/10/12 02:40:15;;;;;;;4.45;1.60;;;19.50;45.80;;;;;;4935592;29;20195;-37
2022/10/12 02:42:52;;;;;;;5.05;1.60;;;19.50;45.80;;;;;;4933363;29;20191;-37
2022/10/12 02:45:25;;;;;;;6.70;1.55;;;19.50;45.80;;;;;;4934706;29;20226;-37
2022/10/12 02:47:59;;;;;;;4.57;1.75;;;19.50;45.70;;;;;;4933743;29;20570;-39
2022/10/12 02:50:33;;;;;;;5.05;1.70;;;19.50;45.70;;;;;;4934893;29;20207;-36
2022/10/12 02:53:04;;;;;;;4.57;1.60;;;19.50;45.70;;;;;;4933816;29;20560;-37
2022/10/12 02:55:47;;;;;;;3.35;1.98;;;19.50;45.70;;;;;;4933729;29;20223;-39
2022/10/12 02:58:18;;;;;;;3.92;1.70;;;19.50;45.70;;;;;;4934246;29;20211;-38
2022/10/12 03:00:49;;;;;;;3.50;2.00;;;19.50;46.30;;;;;;4931434;29;20215;-36
2022/10/12 03:03:20;;;;;;;3.78;2.10;;;19.50;45.70;;;;;;4916201;29;20208;-40
2022/10/12 03:05:52;;;;;;;4.97;2.05;;;19.50;45.70;;;;;;4915214;29;20204;-40
2022/10/12 03:08:24;;;;;;;4.07;1.85;;;19.50;45.70;;;;;;4915033;29;20207;-43
2022/10/12 03:10:55;;;;;;;4.25;2.25;;;19.50;45.70;;;;;;4914594;29;20196;-38
2022/10/12 03:13:26;;;;;;;2.95;1.77;;;19.50;45.80;;;;;;4915356;29;20251;-37
2022/10/12 03:16:02;;;;;;;5.70;2.13;;;19.50;45.80;;;;;;4915241;29;20205;-38
2022/10/12 03:18:34;;;;;;;4.88;2.30;;;19.50;45.80;;;;;;4931617;29;20267;-38
2022/10/12 03:21:07;;;;;;;3.65;1.98;;;19.50;45.70;;;;;;4934510;29;20200;-37
2022/10/12 03:23:38;;;;;;;7.15;2.30;;;19.50;45.70;;;;;;4934568;29;20283;-42
2022/10/12 03:26:09;;;;;;;6.68;2.08;;;19.50;45.70;;;;;;4933800;29;20211;-37
2022/10/12 03:28:40;;;;;;;5.07;1.90;;;19.50;45.70;;;;;;4934168;29;20199;-37
2022/10/12 03:31:10;;;;;;;2.67;1.73;;;19.50;45.70;;;;;;4933867;29;20199;-36
2022/10/12 03:33:41;;;;;;;4.07;1.92;;;19.50;45.70;;;;;;4933838;29;20242;-38
2022/10/12 03:36:14;;;;;;;3.00;2.00;;;19.50;45.70;;;;;;4933811;29;20212;-38
2022/10/12 03:38:45;;;;;;;3.45;1.55;;;19.50;45.80;;;;;;4933551;29;20203;-42
2022/10/12 03:41:15;;;;;;;4.00;1.92;;;19.40;45.60;;;;;;4932858;29;20206;-41
2022/10/12 03:43:46;;;;;;;3.20;1.83;;;19.50;45.70;;;;;;4932888;29;20219;-39
2022/10/12 03:46:17;;;;;;;4.40;1.80;;;19.40;45.70;;;;;;4932263;29;20206;-37
2022/10/12 03:48:47;;;;;;;4.95;2.15;;;19.40;45.60;;;;;;4932817;29;20291;-40
2022/10/12 03:51:20;;;;;;;4.00;1.55;;;19.40;45.70;;;;;;4916191;29;20196;-41
2022/10/12 03:53:51;;;;;;;3.63;1.67;;;19.40;45.70;;;;;;4914002;29;20826;-40
2022/10/12 03:56:22;;;;;;;5.03;2.03;;;19.40;45.60;;;;;;4921715;29;20203;-37
2022/10/12 03:58:52;;;;;;;4.43;1.48;;;19.40;45.60;;;;;;4932976;29;20212;-40
2022/10/12 04:01:23;;;;;;;3.88;1.73;;;19.40;45.60;;;;;;4925657;29;20211;-37
2022/10/12 04:03:54;;;;;;;3.47;1.50;;;19.40;45.70;;;;;;4915167;29;20715;-40
2022/10/12 04:06:26;;;;;;;5.28;1.60;;;19.40;45.70;;;;;;4913874;29;20211;-37
2022/10/12 04:08:57;;;;;;;5.07;1.80;;;19.40;45.70;;;;;;4914987;29;20211;-45
2022/10/12 04:11:28;;;;;;;3.33;1.73;;;19.40;45.70;;;;;;4914269;29;20211;-44
2022/10/12 04:13:58;;;;;;;4.47;1.35;;;19.40;45.80;;;;;;4914271;29;20230;-43
2022/10/12 04:16:29;;;;;;;4.07;1.98;;;19.30;45.70;;;;;;4914804;29;20200;-45
2022/10/12 04:19:00;;;;;;;4.18;1.55;;;19.40;45.80;;;;;;4914400;29;20640;-41
2022/10/12 04:21:33;;;;;;;5.00;1.63;;;19.40;45.80;;;;;;4914853;29;20287;-39
2022/10/12 04:24:04;;;;;;;4.63;1.92;;;19.30;45.80;;;;;;4914136;29;20714;-40
2022/10/12 04:26:35;;;;;;;4.55;1.70;;;19.40;45.80;;;;;;4931408;29;20217;-41
2022/10/12 04:29:06;;;;;;;4.68;1.58;;;19.30;45.80;;;;;;4933874;29;20206;-37
2022/10/12 04:31:36;;;;;;;2.72;1.42;;;19.30;45.90;;;;;;4932595;29;20195;-41
2022/10/12 04:34:07;;;;;;;2.97;1.73;;;19.30;45.80;;;;;;4933139;29;20684;-41
2022/10/12 04:36:40;;;;;;;4.05;1.50;;;19.30;45.90;;;;;;4933320;29;20199;-37
2022/10/12 04:39:11;;;;;;;2.83;1.55;;;19.30;45.90;;;;;;4933161;29;20207;-44
2022/10/12 04:41:43;;;;;;;6.65;2.30;;;19.30;45.90;;;;;;4933150;29;20655;-39
2022/10/12 04:44:13;;;;;;;4.78;1.60;;;19.30;46.00;;;;;;4933667;29;20687;-39
2022/10/12 04:46:44;;;;;;;3.53;1.90;;;19.30;46.00;;;;;;4932804;29;20254;-38
2022/10/12 04:49:15;;;;;;;4.72;1.80;;;19.30;46.00;;;;;;4933660;29;20199;-39
2022/10/12 04:51:47;;;;;;;3.45;1.55;;;19.20;46.00;;;;;;4932679;29;20195;-37
2022/10/12 04:54:18;;;;;;;3.92;1.77;;;19.20;46.00;;;;;;4931851;29;20683;-37
2022/10/12 04:56:49;;;;;;;4.82;1.83;;;19.30;46.10;;;;;;4932420;29;20203;-36
2022/10/12 04:59:19;;;;;;;4.63;1.60;;;19.20;46.00;;;;;;4933702;29;20617;-37
2022/10/12 05:01:50;;;;;;;4.43;2.05;;;19.20;45.90;;;;;;4922371;29;20201;-41
2022/10/12 05:04:21;;;;;;;4.50;2.03;;;19.20;45.90;;;;;;4915788;29;20707;-41
2022/10/12 05:06:53;;;;;;;6.57;2.63;;;19.20;46.00;;;;;;4915232;29;20200;-37
2022/10/12 05:09:24;;;;;;;6.50;2.72;;;19.20;46.00;;;;;;4932455;29;20207;-37
2022/10/12 05:11:58;;;;;;;7.10;3.28;;;19.20;46.00;;;;;;4932346;29;20210;-39
2022/10/12 05:14:29;;;;;;;4.05;2.17;;;19.20;46.00;;;;;;4932839;29;20235;-37
2022/10/12 05:17:00;;;;;;;6.05;3.28;;;19.20;46.10;;;;;;4931760;29;20192;-39
2022/10/12 05:19:30;;;;;;;6.10;3.17;;;19.10;46.00;;;;;;4917307;29;20216;-39
2022/10/12 05:22:04;;;;;;;4.07;2.67;;;19.20;46.10;;;;;;4917919;29;20208;-37
2022/10/12 05:24:34;;;;;;;4.55;2.90;;;19.10;46.10;;;;;;4917218;29;20231;-38
2022/10/12 05:27:05;;;;;;;5.13;3.08;;;19.10;46.00;;;;;;4930072;29;20214;-44
2022/10/12 05:29:36;;;;;;;7.22;2.90;;;19.10;46.10;;;;;;4935305;29;20200;-42
2022/10/12 05:32:07;;;;;;;6.10;3.30;;;19.10;46.00;;;;;;4936665;29;20207;-38
2022/10/12 05:34:37;;;;;;;5.32;3.13;;;19.10;46.10;;;;;;4935805;29;20234;-37
2022/10/12 05:37:10;;;;;;;6.93;3.60;;;19.10;46.10;;;;;;4935840;29;20210;-38
2022/10/12 05:39:40;;;;;;;4.68;3.40;;;19.10;46.10;;;;;;4936732;29;20204;-38
2022/10/12 05:42:11;;;;;;;5.68;3.70;;;19.10;46.10;;;;;;4935562;29;20207;-38
2022/10/12 05:44:42;;;;;;;4.13;3.40;;;19.10;46.10;;;;;;4935538;29;20239;-38
2022/10/12 05:47:13;;;;;;;6.78;3.50;;;19.10;46.20;;;;;;4932775;29;20192;-38
2022/10/12 05:49:44;;;;;;;4.75;3.33;;;19.10;46.20;;;;;;4935605;29;20210;-40
2022/10/12 05:52:16;;;;;;;3.83;3.03;;;19.10;46.20;;;;;;4936014;29;20564;-42
2022/10/12 05:54:47;;;;;;;4.00;3.17;;;19.10;46.20;;;;;;4935923;29;20238;-39
2022/10/12 05:57:18;;;;;;;4.70;3.10;;;19.00;46.10;;;;;;4935547;29;20200;-37
2022/10/12 05:59:49;;;;;;;4.78;3.08;;;19.10;46.20;;;;;;4936085;29;20210;-39
2022/10/12 06:02:20;;;;;;;3.90;2.70;;;19.10;46.20;;;;;;4921139;29;20763;-39
2022/10/12 06:04:51;;;;;;;4.50;3.15;;;19.00;46.20;;;;;;4916545;29;20287;-38
2022/10/12 06:07:24;;;;;;;5.05;3.45;;;19.10;46.30;;;;;;4923302;29;20207;-38
2022/10/12 06:09:55;;;;;;;4.70;2.85;;;19.10;46.30;;;;;;4936118;29;20207;-37
2022/10/12 06:12:25;;;;;;;5.70;3.22;;;19.10;46.30;;;;;;4935430;29;20215;-36
2022/10/12 06:14:56;;;;;;;4.18;2.75;;;19.00;46.20;;;;;;4934189;29;20231;-37
2022/10/12 06:17:27;;;;;;;4.95;3.03;;;19.00;46.20;;;;;;4927861;29;20668;-36
2022/10/12 06:19:57;;;;;;;6.15;2.90;;;19.00;46.30;;;;;;4915573;29;20293;-38
2022/10/12 06:22:30;;;;;;;4.05;3.20;;;19.00;46.30;;;;;;4917378;29;20207;-37
2022/10/12 06:25:01;;;;;;;3.80;2.65;;;19.00;46.40;;;;;;4934458;28;20266;-36
2022/10/12 06:27:31;;;;;;;4.35;3.00;;;19.00;46.30;;;;;;4933668;29;20214;-44
2022/10/12 06:30:02;;;;;;;4.53;2.88;;;19.00;46.30;;;;;;4934137;29;20196;-36
2022/10/12 06:32:33;;;;;;;5.15;3.10;;;19.00;46.30;;;;;;4934292;29;20204;-38
2022/10/12 06:35:04;;;;;;;4.63;2.72;;;19.00;46.20;;;;;;4933807;29;20231;-37
2022/10/12 06:37:36;;;;;;;3.60;2.85;;;19.00;46.30;;;;;;4935421;29;20199;-37
2022/10/12 06:40:07;;;;;;;4.25;2.58;;;18.90;46.30;;;;;;4953947;28;20199;-37
2022/10/12 06:42:38;;;;;;;4.40;2.63;;;18.90;46.30;;;;;;4953476;28;20224;-37
2022/10/12 06:45:10;;;;;;;3.25;2.50;;;18.90;46.40;;;;;;4953198;28;20222;-36
2022/10/12 06:47:40;;;;;;;4.85;2.95;;;18.90;46.40;;;;;;4953473;28;20206;-37
2022/10/12 06:50:11;;;;;;;3.92;2.20;;;18.90;46.40;;;;;;4953453;28;20199;-37
2022/10/12 06:52:44;;;;;;;4.35;2.70;;;18.90;46.50;;;;;;4952620;28;20202;-41
2022/10/12 06:55:15;;;;;;;4.43;2.83;;;18.90;46.40;;;;;;4941785;28;20232;-38
2022/10/12 06:57:45;;;;;;;4.28;2.50;;;18.90;46.40;;;;;;4933917;29;20214;-36
2022/10/12 07:00:17;;;;;;;4.93;3.13;;;18.90;46.40;;;;;;4933586;29;20208;-36
2022/10/12 07:02:50;;;;;;;3.92;2.55;;;18.90;46.40;;;;;;4933835;29;20203;-36
2022/10/12 07:05:21;;;;;;;3.33;2.47;;;18.90;46.40;;;;;;4934002;29;20227;-37
2022/10/12 07:07:54;;;;;;;2.85;2.50;;;18.90;46.40;;;;;;4935262;29;20640;-36
2022/10/12 07:10:24;;;;;;;4.97;2.90;;;18.90;46.40;;;;;;4952552;28;20281;-36
2022/10/12 07:12:55;;;;;;;4.75;2.35;;;18.90;46.50;;;;;;4952914;28;20198;-38
2022/10/12 07:15:26;;;;;;;3.75;2.63;;;18.80;46.40;;;;;;4952848;28;20237;-36
2022/10/12 07:17:57;;;;;;;4.47;2.40;;;18.80;47.10;;;;;;4941474;28;20222;-38
2022/10/12 07:20:27;;;;;;;3.05;2.72;;;18.80;46.50;;;;;;4933404;29;20626;-37
2022/10/12 07:23:00;;;;;;;3.85;2.40;;;18.80;46.50;;;;;;4935095;29;20210;-37
2022/10/12 07:25:31;;;;;;;4.18;2.78;;;18.80;46.60;;;;;;4951457;28;20231;-37
2022/10/12 07:28:04;;;;;;;4.43;2.58;;;18.70;46.50;;;;;;4933197;29;20199;-40
2022/10/12 07:30:37;;;;;;;3.72;2.60;;;18.70;46.50;;;;;;4933500;29;20235;-36
2022/10/12 07:33:07;;;;;;;3.65;2.50;;;18.80;46.50;;;;;;4933701;29;20204;-36
2022/10/12 07:35:38;;;;;;;3.47;2.30;;;18.80;46.50;;;;;;4932943;29;20580;-39
2022/10/12 07:38:11;;;;;;;3.53;2.80;;;18.80;46.50;;;;;;4934179;29;20207;-37
2022/10/12 07:40:42;;;;;;;3.40;2.60;;;18.70;46.40;;;;;;4915645;29;20196;-37
2022/10/12 07:43:12;;;;;;;3.55;2.30;;;18.70;46.50;;;;;;4913754;29;20333;-37
2022/10/12 07:45:43;;;;;;;3.97;2.70;;;18.70;46.50;;;;;;4913618;29;20220;-36
2022/10/12 07:48:14;;;;;;;3.65;2.63;;;18.70;46.50;;;;;;4914083;29;20209;-36
2022/10/12 07:50:45;;;;;;;4.72;2.63;;;18.70;46.60;;;;;;4914101;29;20738;-36
2022/10/12 07:53:17;;;;;;;2.97;2.25;;;18.70;46.60;;;;;;4919739;29;20203;-36
2022/10/12 07:55:48;;;;;;;3.45;2.60;;;18.70;46.60;;;;;;4948635;28;20235;-41
2022/10/12 07:58:19;;;;;;;4.82;2.47;;;18.70;46.60;;;;;;4932567;29;20294;-36
2022/10/12 08:00:50;;;;;;;3.42;2.47;;;18.60;46.60;;;;;;4932621;29;20211;-36
2022/10/12 08:03:21;;;;;;;3.97;2.75;;;18.60;46.60;;;;;;4932895;29;20211;-38
2022/10/12 08:05:51;;;;;;;2.50;2.30;;;18.70;46.60;;;;;;4933307;29;20588;-37
2022/10/12 08:08:24;;;;;;;3.97;2.55;;;18.70;46.60;;;;;;4935141;29;20833;-38
2022/10/12 08:10:56;;;;;;;3.15;2.35;;;18.70;46.70;;;;;;4951740;28;20535;-37
2022/10/12 08:13:27;;;;;;;2.97;2.33;;;18.70;47.40;;;;;;4926069;28;20235;-40
2022/10/12 08:15:58;;;;;;;4.32;2.63;;;18.60;46.80;;;;;;4914766;29;20322;-47
2022/10/12 08:18:29;;;;;;;4.55;2.55;;;18.60;46.80;;;;;;4921918;29;20202;-38
2022/10/12 08:21:00;;;;;;;3.70;2.28;;;18.60;46.80;;;;;;4915484;29;20204;-39
2022/10/12 08:23:33;;;;;;;2.72;2.40;;;18.60;46.90;;;;;;4915199;29;20215;-38
2022/10/12 08:26:03;;;;;;;3.20;2.40;;;18.60;46.90;;;;;;4931916;29;20230;-39
2022/10/12 08:28:34;;;;;;;3.30;2.30;;;18.60;46.90;;;;;;4933221;29;20203;-40
2022/10/12 08:31:10;;;;;;;2.97;2.60;;;18.60;46.90;;;;;;4931684;29;20698;-42
2022/10/12 08:33:41;;;;;;;3.00;2.28;;;18.60;47.00;;;;;;4913506;29;20227;-40
2022/10/12 08:36:13;;;;;;;3.80;2.53;;;18.50;46.90;;;;;;4914528;29;20235;-38
2022/10/12 08:38:47;;;;;;;3.65;2.58;;;18.50;46.90;;;;;;4913962;29;20188;-41
2022/10/12 08:41:30;;;;;;;3.25;2.45;;;18.60;46.90;;;;;;4914556;29;20204;-40
2022/10/12 08:44:24;;;;;;;4.85;2.53;;;18.60;46.90;;;;;;4914233;29;20718;-37
2022/10/12 08:47:01;;;;;;;2.88;2.08;;;18.60;46.90;;;;;;4914734;29;20208;-37
2022/10/12 08:49:38;;;;;;;3.20;2.10;;;18.60;46.90;;;;;;4914205;29;20223;-39
2022/10/12 08:52:19;;;;;;;3.22;2.10;;;18.50;46.90;;;;;;4916817;29;20660;-38
2022/10/12 08:54:51;;;;;;;3.35;2.25;;;18.50;47.00;;;;;;4921104;29;20279;-43
2022/10/12 08:57:22;;;;;;;3.55;2.17;;;18.50;47.00;;;;;;4935384;29;20214;-43
2022/10/12 08:59:53;;;;;;;3.33;2.17;;;18.50;47.00;;;;;;4936617;29;20199;-43
2022/10/12 09:02:47;;;;;;;2.72;2.20;;;18.50;47.10;;;;;;4936550;29;20210;-43
2022/10/12 09:05:23;;;;;;;2.97;2.08;;;18.40;47.00;;;;;;4918245;29;20692;-37
2022/10/12 09:07:58;;;;;;;3.15;2.15;;;18.40;47.00;;;;;;4921233;29;20188;-41
2022/10/12 09:10:40;;;;;;;3.10;2.15;;;18.40;46.90;;;;;;4917946;29;20682;-47
2022/10/12 09:13:24;;;;;;;3.15;1.98;;;18.40;46.90;;;;;;4921517;29;20199;-37
2022/10/12 09:15:58;;;;;;;3.72;1.90;;;18.40;47.30;;;;;;4936586;29;20232;-38
2022/10/12 09:18:37;;;;;;;2.50;1.95;;;18.40;47.00;;;;;;4931666;29;20196;-40
2022/10/12 09:21:10;;;;;;;4.32;2.10;;;18.40;47.00;;;;;;4917666;29;20204;-37
2022/10/12 09:23:43;;;;;;;2.83;2.00;;;18.40;47.00;;;;;;4927828;29;20314;-44
2022/10/12 09:26:18;;;;;;;2.88;1.90;;;18.40;47.10;;;;;;4935886;29;20215;-43
2022/10/12 09:28:52;;;;;;;3.53;1.85;;;18.40;47.10;;;;;;4928177;29;20207;-48
2022/10/12 09:31:33;;;;;;;2.78;2.25;;;18.40;47.10;;;;;;4936548;29;20197;-44
2022/10/12 09:34:06;;;;;;;3.08;2.10;;;18.40;47.80;;;;;;4935832;29;20226;-41
2022/10/12 09:36:39;;;;;;;2.60;1.80;;;18.40;47.20;;;;;;4936647;29;20235;-43
2022/10/12 09:39:14;;;;;;;2.42;1.70;;;18.40;47.20;;;;;;4929306;29;20199;-39
2022/10/12 09:41:48;;;;;;;2.90;1.83;;;18.30;47.20;;;;;;4936589;29;20199;-47
2022/10/12 09:44:26;;;;;;;2.53;1.67;;;18.30;47.10;;;;;;4935704;29;20241;-42
2022/10/12 09:47:00;;;;;;;3.33;1.98;;;18.40;47.20;;;;;;4936142;29;20690;-46
2022/10/12 09:49:43;;;;;;;4.07;2.00;;;18.30;47.10;;;;;;4934907;29;20202;-38
2022/10/12 09:52:15;;;;;;;2.22;1.90;;;18.30;47.10;;;;;;4935734;29;20227;-39
2022/10/12 09:54:50;;;;;;;2.40;1.88;;;18.30;47.10;;;;;;4935492;29;20227;-40
2022/10/12 09:57:27;;;;;;;2.28;1.92;;;18.30;47.20;;;;;;4935055;29;20230;-39
2022/10/12 09:59:59;;;;;;;2.53;2.17;;;18.30;47.20;;;;;;4936078;29;20203;-47
2022/10/12 10:02:30;;;;;;;3.10;2.10;;;18.30;47.20;;;;;;4934845;29;20863;-40
2022/10/12 10:05:24;;;;;;;2.28;1.90;;;18.30;47.20;;;;;;4935623;29;20223;-41
2022/10/12 10:07:55;;;;;;;4.75;2.40;;;18.30;47.20;;;;;;4932417;29;20252;-41
2022/10/12 10:10:26;;;;;;;2.78;2.22;;;18.30;47.30;;;;;;4916658;29;20207;-42
2022/10/12 10:13:00;;;;;;;2.72;2.20;;;18.20;47.20;;;;;;4916494;29;20204;-38
2022/10/12 10:15:33;;;;;;;3.70;2.33;;;18.30;47.20;;;;;;4916622;29;20239;-40
2022/10/12 10:18:05;;;;;;;3.20;2.03;;;18.30;47.20;;;;;;4916021;29;20725;-47
2022/10/12 10:20:40;;;;;;;2.78;2.03;;;18.30;47.20;;;;;;4917026;29;20202;-44
2022/10/12 10:23:25;;;;;;;3.38;2.38;;;18.30;47.20;;;;;;4917044;29;20204;-37
2022/10/12 10:26:04;;;;;;;4.15;2.53;;;18.30;47.20;;;;;;4919930;29;20207;-36
2022/10/12 10:28:38;;;;;;;4.22;2.70;;;18.30;47.20;;;;;;4934395;29;20216;-43
2022/10/12 10:31:20;;;;;;;3.00;2.20;;;18.20;47.30;;;;;;4934186;29;20200;-38
2022/10/12 10:34:25;;;;;;;3.55;2.60;;;18.20;47.30;;;;;;4934726;29;20231;-38
2022/10/12 10:37:00;;;;;;;2.65;1.92;;;18.20;47.30;;;;;;4915238;29;20227;-38
2022/10/12 10:39:33;;;;;;;3.08;2.10;;;18.20;47.30;;;;;;4915086;29;20675;-37
2022/10/12 10:42:13;;;;;;;3.60;2.40;;;18.20;47.30;;;;;;4915026;29;20196;-38
2022/10/12 10:44:52;;;;;;;3.30;2.13;;;18.20;47.30;;;;;;4915011;29;20224;-42
2022/10/12 10:47:23;;;;;;;3.13;2.20;;;18.20;47.30;;;;;;4914986;29;20211;-38
2022/10/12 10:49:56;;;;;;;3.00;2.10;;;18.20;47.30;;;;;;4928304;29;20578;-40
2022/10/12 10:52:29;;;;;;;3.70;2.15;;;18.20;47.30;;;;;;4953314;28;20209;-39
2022/10/12 10:55:20;;;;;;;3.45;2.10;;;18.20;47.30;;;;;;4953061;28;20215;-37
2022/10/12 10:57:59;;;;;;;3.38;2.10;;;18.10;47.90;;;;;;4914525;29;20235;-37
2022/10/12 11:00:34;;;;;;;2.55;2.17;;;18.20;47.30;;;;;;4914901;29;20212;-36
2022/10/12 11:03:09;;;;;;;2.90;2.22;;;18.10;47.30;;;;;;4914902;29;20200;-37
2022/10/12 11:05:44;;;;;;;3.08;2.13;;;18.10;47.30;;;;;;4938185;29;20225;-39
2022/10/12 11:08:21;;;;;;;2.75;1.98;;;18.10;47.30;;;;;;4952470;28;20226;-39
2022/10/12 11:10:55;;;;;;;3.00;2.03;;;18.10;47.40;;;;;;4949291;28;20199;-36
2022/10/12 11:13:29;;;;;;;3.05;1.98;;;18.10;47.40;;;;;;4933346;29;20203;-37
2022/10/12 11:16:06;;;;;;;3.00;2.20;;;18.10;47.40;;;;;;4933550;29;20211;-40
2022/10/12 11:18:43;;;;;;;4.55;2.25;;;18.10;47.40;;;;;;4933672;29;20195;-41
2022/10/12 11:21:17;;;;;;;3.10;1.98;;;18.10;47.40;;;;;;4949284;29;20194;-38
2022/10/12 11:23:55;;;;;;;2.65;1.92;;;18.10;47.40;;;;;;4952584;28;20719;-37
2022/10/12 11:26:30;;;;;;;2.50;2.13;;;18.10;47.40;;;;;;4944117;28;20207;-44
2022/10/12 11:29:02;;;;;;;2.17;1.98;;;18.10;47.40;;;;;;4933353;29;20206;-41
2022/10/12 11:31:40;;;;;;;3.10;2.20;;;18.10;47.40;;;;;;4933566;29;20195;-42
2022/10/12 11:34:16;;;;;;;2.53;2.00;;;18.00;47.40;;;;;;4933260;29;20219;-40
2022/10/12 11:36:51;;;;;;;3.55;1.90;;;18.00;47.40;;;;;;4914940;29;20232;-38
2022/10/12 11:39:31;;;;;;;2.67;1.90;;;18.00;47.40;;;;;;4914427;29;20659;-47
2022/10/12 11:42:03;;;;;;;3.20;2.08;;;18.00;47.50;;;;;;4914526;29;20207;-37
2022/10/12 11:44:41;;;;;;;3.17;2.10;;;18.00;47.50;;;;;;4913896;29;20216;-37
2022/10/12 11:47:21;;;;;;;2.85;2.03;;;18.00;47.50;;;;;;4916092;29;20206;-43
2022/10/12 11:49:58;;;;;;;3.22;2.15;;;18.00;47.50;;;;;;4921092;29;20210;-40
2022/10/12 11:52:46;;;;;;;1.95;1.60;;;18.00;47.50;;;;;;4952106;28;20265;-38
2022/10/12 11:55:47;;;;;;;3.85;1.90;;;18.00;47.50;;;;;;4951862;28;20698;-42
2022/10/12 11:58:23;;;;;;;3.42;2.10;;;18.00;47.50;;;;;;4911272;29;20207;-40
2022/10/12 12:01:10;;;;;;;3.63;2.00;;;18.00;47.50;;;;;;4933112;29;20207;-39
2022/10/12 12:04:23;;;;;;;2.97;2.00;;;18.00;47.40;;;;;;4932376;29;20226;-43
2022/10/12 12:06:59;;;;;;;3.17;2.00;;;17.90;47.40;;;;;;4946744;28;20206;-38
2022/10/12 12:09:44;;;;;;;3.25;2.15;;;17.90;47.50;;;;;;4951828;28;20198;-41
2022/10/12 12:12:23;;;;;;;3.20;2.25;;;17.90;47.50;;;;;;4951763;28;20198;-37
2022/10/12 12:15:23;;;;;;;2.75;1.80;;;17.90;47.50;;;;;;4951750;28;20703;-41
2022/10/12 12:18:14;;;;;;;3.17;2.10;;;17.90;47.60;;;;;;4951860;28;20226;-36
2022/10/12 12:21:08;;;;;;;3.05;2.00;;;17.90;47.60;;;;;;4948916;28;20206;-39
2022/10/12 12:23:43;;;;;;;3.13;2.10;;;17.90;47.60;;;;;;4949703;28;20210;-38
2022/10/12 12:26:20;;;;;;;2.90;1.95;;;17.90;47.60;;;;;;4944275;28;20675;-37
2022/10/12 12:28:52;;;;;;;2.63;1.88;;;17.90;47.60;;;;;;4932649;29;20191;-42
2022/10/12 12:31:29;;;;;;;2.70;2.00;;;17.90;47.60;;;;;;4932676;29;20210;-39
2022/10/12 12:34:07;;;;;;;2.00;1.80;;;17.90;47.60;;;;;;4931901;29;20215;-40
2022/10/12 12:36:43;;;;;;;2.47;1.80;;;17.80;47.60;;;;;;4947431;29;20229;-38
2022/10/12 12:39:26;;;;;;;2.33;1.80;;;17.80;47.50;;;;;;4951466;28;20967;-46
2022/10/12 12:41:59;;;;;;;2.42;1.60;;;17.80;47.60;;;;;;4951621;28;20209;-49
2022/10/12 12:44:41;;;;;;;2.15;1.70;;;17.80;47.60;;;;;;4951259;28;20310;-48
2022/10/12 12:47:38;;;;;;;3.25;1.88;;;17.80;47.60;;;;;;4951355;28;20195;-39
2022/10/12 12:50:31;;;;;;;2.25;1.58;;;17.80;47.60;;;;;;4950677;28;20196;-40
2022/10/12 12:53:08;;;;;;;2.92;1.70;;;17.80;47.60;;;;;;4951384;28;20202;-42
2022/10/12 12:56:04;;;;;;;2.05;1.70;;;17.80;47.60;;;;;;4949450;28;20597;-40
2022/10/12 12:58:51;;;;;;;2.58;1.75;;;17.80;47.70;;;;;;4931425;29;20211;-36
2022/10/12 13:01:41;;;;;;;3.30;1.90;;;17.70;47.60;;;;;;4932410;29;20754;-40
2022/10/12 13:04:35;;;;;;;2.97;1.80;;;17.80;47.60;;;;;;4931997;29;20220;-39
2022/10/12 13:07:46;;;;;;;3.15;1.90;;;17.70;47.60;;;;;;4949117;29;20690;-37
2022/10/12 13:10:29;;;;;;;3.33;2.00;;;17.80;47.60;;;;;;4950988;28;20199;-37
2022/10/12 13:13:21;;;;;;;1.77;1.55;;;17.80;47.60;;;;;;4948241;28;20195;-37
2022/10/12 13:16:06;;;;;;;2.78;1.85;;;17.70;47.60;;;;;;4912528;29;20207;-40
2022/10/12 13:18:57;;;;;;;2.00;1.50;;;17.70;47.70;;;;;;4912830;29;20240;-37
2022/10/12 13:21:30;;;;;;;2.60;1.88;;;17.70;47.70;;;;;;4936593;29;20199;-39
2022/10/12 13:24:09;;;;;;;2.80;1.80;;;17.70;47.70;;;;;;4951092;28;20223;-40
2022/10/12 13:26:44;;;;;;;2.72;1.75;;;17.70;47.70;;;;;;4940930;28;20207;-46
2022/10/12 13:29:23;;;;;;;2.40;1.63;;;17.70;47.70;;;;;;4932228;29;20682;-39